createdAt,value
2022-10-30T00:01:19.936Z,40.27
2022-10-30T00:04:05.869Z,33.70
2022-10-30T00:06:51.756Z,33.00
2022-10-30T00:09:37.596Z,36.47
2022-10-30T00:12:23.497Z,37.20
2022-10-30T00:15:09.573Z,43.37
2022-10-30T00:17:56.313Z,33.17
2022-10-30T00:20:42.634Z,33.90
2022-10-30T00:23:28.536Z,31.90
2022-10-30T00:26:14.847Z,32.40
2022-10-30T00:29:00.961Z,41.73
2022-10-30T00:31:46.795Z,32.70
2022-10-30T00:34:32.797Z,41.70
2022-10-30T00:37:18.731Z,33.63
2022-10-30T00:40:05.528Z,33.60
2022-10-30T00:42:52.053Z,36.93
2022-10-30T00:45:38.173Z,29.83
2022-10-30T00:48:25.793Z,33.70
2022-10-30T00:51:12.447Z,29.77
2022-10-30T00:54:00.280Z,30.90
2022-10-30T00:56:46.629Z,28.70
2022-10-30T00:59:34.142Z,33.93
2022-10-30T01:02:20.672Z,38.03
2022-10-30T01:05:07.050Z,37.27
2022-10-30T01:07:52.845Z,34.17
2022-10-30T01:10:41.659Z,33.10
2022-10-30T01:13:27.927Z,40.93
2022-10-30T01:16:30.075Z,34.70
2022-10-30T01:19:18.341Z,32.23
2022-10-30T01:22:07.788Z,33.10
2022-10-30T01:25:06.180Z,30.27
2022-10-30T01:27:59.981Z,30.00
2022-10-30T01:31:01.386Z,29.03
2022-10-30T01:33:56.783Z,34.83
2022-10-30T01:36:50.713Z,28.37
2022-10-30T01:39:39.064Z,37.57
2022-10-30T01:42:46.009Z,31.03
2022-10-30T01:45:52.803Z,31.50
2022-10-30T01:48:53.781Z,30.40
2022-10-30T01:51:46.340Z,35.97
2022-10-30T01:54:38.308Z,26.93
2022-10-30T01:57:24.752Z,29.43
2022-10-30T02:00:13.330Z,38.33
2022-10-30T02:02:59.313Z,25.77
2022-10-30T02:05:50.099Z,30.73
2022-10-30T02:08:37.490Z,32.73
2022-10-30T02:11:24.235Z,38.10
2022-10-30T02:14:11.000Z,32.33
2022-10-30T02:16:59.476Z,32.27
2022-10-30T02:19:45.490Z,35.93
2022-10-30T02:22:31.875Z,34.07
2022-10-30T02:25:17.997Z,32.60
2022-10-30T02:28:03.867Z,31.47
2022-10-30T02:30:51.868Z,34.60
2022-10-30T02:33:37.635Z,30.33
2022-10-30T02:36:23.597Z,30.70
2022-10-30T02:39:12.095Z,31.60
2022-10-30T02:41:57.698Z,37.53
2022-10-30T02:44:43.515Z,27.60
2022-10-30T02:47:29.236Z,41.87
2022-10-30T02:50:15.251Z,32.20
2022-10-30T02:53:01.435Z,36.60
2022-10-30T02:55:47.833Z,34.17
2022-10-30T02:58:33.784Z,33.63
2022-10-30T03:01:20.375Z,32.10
2022-10-30T03:04:09.375Z,29.47
2022-10-30T03:06:55.343Z,32.23
2022-10-30T03:09:42.542Z,27.43
2022-10-30T03:12:28.455Z,38.30
2022-10-30T03:15:14.259Z,31.93
2022-10-30T03:18:00.088Z,33.83
2022-10-30T03:20:46.281Z,27.50
2022-10-30T03:23:31.773Z,23.80
2022-10-30T03:26:20.714Z,27.23
2022-10-30T03:29:22.790Z,29.60
2022-10-30T03:32:12.151Z,26.10
2022-10-30T03:35:06.807Z,24.20
2022-10-30T03:37:52.381Z,23.27
2022-10-30T03:40:38.779Z,29.70
2022-10-30T03:43:24.585Z,26.50
2022-10-30T03:46:11.439Z,30.63
2022-10-30T03:48:57.557Z,27.63
2022-10-30T03:51:43.403Z,30.30
2022-10-30T03:54:28.838Z,23.37
2022-10-30T03:57:14.367Z,24.93
2022-10-30T04:00:13.395Z,25.53
2022-10-30T04:03:12.826Z,35.50
2022-10-30T04:06:01.031Z,25.90
2022-10-30T04:08:47.298Z,28.57
2022-10-30T04:11:32.839Z,29.13
2022-10-30T04:14:18.357Z,27.37
2022-10-30T04:17:06.190Z,29.83
2022-10-30T04:19:52.226Z,28.33
2022-10-30T04:22:37.765Z,28.40
2022-10-30T04:25:24.007Z,32.57
2022-10-30T04:28:11.179Z,28.40
2022-10-30T04:30:57.293Z,26.40
2022-10-30T04:33:44.368Z,28.33
2022-10-30T04:36:32.954Z,27.33
2022-10-30T04:39:19.036Z,29.53
2022-10-30T04:42:05.679Z,25.10
2022-10-30T04:44:53.459Z,22.50
2022-10-30T04:47:39.127Z,21.37
2022-10-30T04:50:24.939Z,27.87
2022-10-30T04:53:21.010Z,26.30
2022-10-30T04:56:09.193Z,27.33
2022-10-30T04:58:56.272Z,25.07
2022-10-30T05:01:42.125Z,23.73
2022-10-30T05:04:27.858Z,23.30
2022-10-30T05:07:15.457Z,25.30
2022-10-30T05:10:01.067Z,25.97
2022-10-30T05:12:46.942Z,24.50
2022-10-30T05:15:32.997Z,27.70
2022-10-30T05:18:19.388Z,22.97
2022-10-30T05:21:05.267Z,23.33
2022-10-30T05:23:50.958Z,24.97
2022-10-30T05:26:36.708Z,19.80
2022-10-30T05:29:22.440Z,25.73
2022-10-30T05:32:08.804Z,23.73
2022-10-30T05:35:13.833Z,22.03
2022-10-30T05:38:00.111Z,22.30
2022-10-30T05:40:47.134Z,22.53
2022-10-30T05:43:34.066Z,22.03
2022-10-30T05:46:20.092Z,23.40
2022-10-30T05:49:09.318Z,23.67
2022-10-30T05:51:55.466Z,18.47
2022-10-30T05:54:41.341Z,22.60
2022-10-30T05:57:47.127Z,24.53
2022-10-30T06:00:34.435Z,21.17
2022-10-30T06:03:20.377Z,21.93
2022-10-30T06:06:06.709Z,20.70
2022-10-30T06:08:52.456Z,23.43
2022-10-30T06:11:53.636Z,20.57
2022-10-30T06:14:46.401Z,21.07
2022-10-30T06:17:32.150Z,21.63
2022-10-30T06:20:24.820Z,20.87
2022-10-30T06:23:39.211Z,19.93
2022-10-30T06:26:36.651Z,22.97
2022-10-30T06:29:27.629Z,26.47
2022-10-30T06:32:14.586Z,17.43
2022-10-30T06:35:02.661Z,18.10
2022-10-30T06:37:48.975Z,17.23
2022-10-30T06:40:35.523Z,18.17
2022-10-30T06:43:37.649Z,21.13
2022-10-30T06:46:32.474Z,18.23
2022-10-30T06:49:20.175Z,26.03
2022-10-30T06:52:06.009Z,21.43
2022-10-30T06:54:53.543Z,19.17
2022-10-30T06:58:05.437Z,24.27
2022-10-30T07:01:02.109Z,23.77
2022-10-30T07:04:13.562Z,18.37
2022-10-30T07:06:59.322Z,23.70
2022-10-30T07:09:46.468Z,26.77
2022-10-30T07:12:34.045Z,21.10
2022-10-30T07:15:29.285Z,22.23
2022-10-30T07:18:23.724Z,19.60
2022-10-30T07:21:13.481Z,19.87
2022-10-30T07:23:59.818Z,19.40
2022-10-30T07:26:51.870Z,19.63
2022-10-30T07:29:56.623Z,18.93
2022-10-30T07:32:44.797Z,23.43
2022-10-30T07:35:46.581Z,21.53
2022-10-30T07:38:46.187Z,22.63
2022-10-30T07:41:47.342Z,23.27
2022-10-30T07:45:01.953Z,25.60
2022-10-30T07:47:54.826Z,16.27
2022-10-30T07:51:00.564Z,21.73
2022-10-30T07:53:46.509Z,25.30
2022-10-30T07:56:32.270Z,22.30
2022-10-30T07:59:37.774Z,26.73
2022-10-30T08:02:59.445Z,22.40
2022-10-30T08:05:54.110Z,20.83
2022-10-30T08:08:50.324Z,18.57
2022-10-30T08:11:41.610Z,19.17
2022-10-30T08:14:27.511Z,22.40
2022-10-30T08:17:14.734Z,18.80
2022-10-30T08:20:02.605Z,16.33
2022-10-30T08:22:54.366Z,22.47
2022-10-30T08:25:43.092Z,19.13
2022-10-30T08:28:32.580Z,18.53
2022-10-30T08:31:19.192Z,16.50
2022-10-30T08:34:24.036Z,21.80
2022-10-30T08:37:12.700Z,19.60
2022-10-30T08:39:58.482Z,18.03
2022-10-30T08:42:58.580Z,21.13
2022-10-30T08:45:45.440Z,20.50
2022-10-30T08:48:32.922Z,16.33
2022-10-30T08:51:18.693Z,16.40
2022-10-30T08:54:05.795Z,23.40
2022-10-30T08:56:51.630Z,15.23
2022-10-30T08:59:37.397Z,17.20
2022-10-30T09:02:23.509Z,20.03
2022-10-30T09:05:32.075Z,18.70
2022-10-30T09:08:30.105Z,20.33
2022-10-30T09:11:28.009Z,19.40
2022-10-30T09:14:13.768Z,14.20
2022-10-30T09:16:59.940Z,18.90
2022-10-30T09:19:46.151Z,21.00
2022-10-30T09:22:41.886Z,19.60
2022-10-30T09:25:27.972Z,24.93
2022-10-30T09:28:36.224Z,23.33
2022-10-30T09:31:53.666Z,22.63
2022-10-30T09:34:39.676Z,20.80
2022-10-30T09:37:34.562Z,26.20
2022-10-30T09:40:20.606Z,20.70
2022-10-30T09:43:26.135Z,20.13
2022-10-30T09:46:16.529Z,20.33
2022-10-30T09:49:19.312Z,24.20
2022-10-30T09:52:14.535Z,23.40
2022-10-30T09:55:05.927Z,21.93
2022-10-30T09:58:16.613Z,18.70
2022-10-30T10:01:11.073Z,19.93
2022-10-30T10:04:22.475Z,18.37
2022-10-30T10:07:40.674Z,20.43
2022-10-30T10:10:46.793Z,22.63
2022-10-30T10:13:42.001Z,22.40
2022-10-30T10:16:29.489Z,21.53
2022-10-30T10:19:20.073Z,15.60
2022-10-30T10:22:13.934Z,20.10
2022-10-30T10:24:59.876Z,21.37
2022-10-30T10:27:52.907Z,21.27
2022-10-30T10:30:47.290Z,17.20
2022-10-30T10:33:40.709Z,18.83
2022-10-30T10:36:32.664Z,17.33
2022-10-30T10:39:25.091Z,20.20
2022-10-30T10:42:29.255Z,19.00
2022-10-30T10:45:26.081Z,16.07
2022-10-30T10:48:30.691Z,16.23
2022-10-30T10:51:20.840Z,15.93
2022-10-30T10:54:12.756Z,17.03
2022-10-30T10:56:59.822Z,12.13
2022-10-30T10:59:47.784Z,15.27
2022-10-30T11:02:51.808Z,18.53
2022-10-30T11:05:43.437Z,14.83
2022-10-30T11:08:34.785Z,14.50
2022-10-30T11:11:20.394Z,17.77
2022-10-30T11:14:25.460Z,11.80
2022-10-30T11:17:19.474Z,18.73
2022-10-30T11:20:22.642Z,19.63
2022-10-30T11:23:30.898Z,17.10
2022-10-30T11:26:22.210Z,13.47
2022-10-30T11:29:15.564Z,17.00
2022-10-30T11:32:03.116Z,9.93
2022-10-30T11:35:02.074Z,14.37
2022-10-30T11:37:49.124Z,16.40
2022-10-30T11:40:34.703Z,10.40
2022-10-30T11:43:24.310Z,10.67
2022-10-30T11:46:12.243Z,11.33
2022-10-30T11:48:57.998Z,17.03
2022-10-30T11:51:47.695Z,11.97
2022-10-30T11:54:40.018Z,9.67
2022-10-30T11:57:32.944Z,13.27
2022-10-30T12:00:21.933Z,14.30
2022-10-30T12:03:26.873Z,10.77
2022-10-30T12:06:20.229Z,11.80
2022-10-30T12:09:20.452Z,13.73
2022-10-30T12:12:11.415Z,14.17
2022-10-30T12:15:07.953Z,11.57
2022-10-30T12:17:54.519Z,9.80
2022-10-30T12:20:40.630Z,9.27
2022-10-30T12:23:28.993Z,11.03
2022-10-30T12:26:15.789Z,9.77
2022-10-30T12:29:03.183Z,11.83
2022-10-30T12:31:48.971Z,10.07
2022-10-30T12:34:34.919Z,9.43
2022-10-30T12:37:28.793Z,8.47
2022-10-30T12:40:17.221Z,10.20
2022-10-30T12:43:11.996Z,8.97
2022-10-30T12:46:05.489Z,10.97
2022-10-30T12:48:59.351Z,12.50
2022-10-30T12:51:53.296Z,11.97
2022-10-30T12:54:42.173Z,9.30
2022-10-30T12:57:29.562Z,10.37
2022-10-30T13:00:16.530Z,12.07
2022-10-30T13:03:17.517Z,11.40
2022-10-30T13:06:08.763Z,11.23
2022-10-30T13:09:13.435Z,13.13
2022-10-30T13:12:03.911Z,9.87
2022-10-30T13:15:03.858Z,9.53
2022-10-30T13:17:50.218Z,10.10
2022-10-30T13:20:36.158Z,8.07
2022-10-30T13:23:25.680Z,20.60
2022-10-30T13:26:14.324Z,11.43
2022-10-30T13:29:03.201Z,10.67
2022-10-30T13:32:01.183Z,9.13
2022-10-30T13:34:51.476Z,10.03
2022-10-30T13:37:42.479Z,8.47
2022-10-30T13:40:50.972Z,9.23
2022-10-30T13:43:43.759Z,12.00
2022-10-30T13:46:32.578Z,11.57
2022-10-30T13:49:31.174Z,10.67
2022-10-30T13:52:18.226Z,7.67
2022-10-30T13:55:23.815Z,9.93
2022-10-30T13:58:15.891Z,10.33
2022-10-30T14:01:01.690Z,12.50
2022-10-30T14:04:06.912Z,10.77
2022-10-30T14:06:52.889Z,9.90
2022-10-30T14:09:51.087Z,7.80
2022-10-30T14:12:55.379Z,11.37
2022-10-30T14:15:43.341Z,7.80
2022-10-30T14:18:43.653Z,10.50
2022-10-30T14:21:40.839Z,9.90
2022-10-30T14:24:30.688Z,9.03
2022-10-30T14:27:21.067Z,10.87
2022-10-30T14:30:18.260Z,8.70
2022-10-30T14:33:03.891Z,10.57
2022-10-30T14:36:09.547Z,9.13
2022-10-30T14:39:01.282Z,14.07
2022-10-30T14:42:05.975Z,9.83
2022-10-30T14:45:11.015Z,11.43
2022-10-30T14:48:00.912Z,9.40
2022-10-30T14:51:05.572Z,10.27
2022-10-30T14:53:59.941Z,14.03
2022-10-30T14:56:51.501Z,9.43
2022-10-30T14:59:39.387Z,12.77
2022-10-30T15:02:33.555Z,13.03
2022-10-30T15:05:19.100Z,11.53
2022-10-30T15:08:16.201Z,11.47
2022-10-30T15:11:08.056Z,14.23
2022-10-30T15:14:01.411Z,9.80
2022-10-30T15:16:50.028Z,12.33
2022-10-30T15:19:37.507Z,12.80
2022-10-30T15:22:24.349Z,10.93
2022-10-30T15:25:20.151Z,16.93
2022-10-30T15:28:06.572Z,14.37
2022-10-30T15:31:00.438Z,16.17
2022-10-30T15:33:46.662Z,14.53
2022-10-30T15:36:41.017Z,12.53
2022-10-30T15:39:27.689Z,18.57
2022-10-30T15:42:14.152Z,13.10
2022-10-30T15:44:59.804Z,21.90
2022-10-30T15:47:49.996Z,24.83
2022-10-30T15:50:35.915Z,21.80
2022-10-30T15:53:25.615Z,21.77
2022-10-30T15:56:24.973Z,25.70
2022-10-30T15:59:18.092Z,17.90
2022-10-30T16:02:03.632Z,19.30
2022-10-30T16:04:50.501Z,22.10
2022-10-30T16:07:36.222Z,25.07
2022-10-30T16:10:23.071Z,19.92
2022-10-30T16:13:13.329Z,19.07
2022-10-30T16:15:59.229Z,21.10
2022-10-30T16:18:45.230Z,20.73
2022-10-30T16:21:31.683Z,18.10
2022-10-30T16:24:18.249Z,16.80
2022-10-30T16:27:07.909Z,18.03
2022-10-30T16:30:00.520Z,20.27
2022-10-30T16:32:52.016Z,17.30
2022-10-30T16:35:37.481Z,23.80
2022-10-30T16:38:24.506Z,22.10
2022-10-30T16:41:13.355Z,20.27
2022-10-30T16:44:10.812Z,21.83
2022-10-30T16:47:17.941Z,26.53
2022-10-30T16:50:05.392Z,23.50
2022-10-30T16:52:51.698Z,34.27
2022-10-30T16:55:39.560Z,24.30
2022-10-30T16:58:27.170Z,21.70
2022-10-30T17:01:13.032Z,24.20
2022-10-30T17:03:59.204Z,33.60
2022-10-30T17:06:48.034Z,22.70
2022-10-30T17:09:38.520Z,25.87
2022-10-30T17:12:25.258Z,26.77
2022-10-30T17:15:14.691Z,30.83
2022-10-30T17:18:11.630Z,27.97
2022-10-30T17:21:02.571Z,33.40
2022-10-30T17:23:53.015Z,31.03
2022-10-30T17:26:39.176Z,37.13
2022-10-30T17:29:36.995Z,36.27
2022-10-30T17:32:24.184Z,30.83
2022-10-30T17:35:14.412Z,29.97
2022-10-30T17:38:02.945Z,28.53
2022-10-30T17:40:49.352Z,22.90
2022-10-30T17:43:38.924Z,30.23
2022-10-30T17:46:25.151Z,30.73
2022-10-30T17:49:20.495Z,35.07
2022-10-30T17:52:06.184Z,30.23
2022-10-30T17:54:53.409Z,26.63
2022-10-30T17:57:40.106Z,29.30
2022-10-30T18:00:27.599Z,31.83
2022-10-30T18:03:13.538Z,23.63
2022-10-30T18:06:02.049Z,31.33
2022-10-30T18:08:50.850Z,30.07
2022-10-30T18:11:36.952Z,26.83
2022-10-30T18:14:22.365Z,31.00
2022-10-30T18:17:07.849Z,29.57
2022-10-30T18:19:54.564Z,31.43
2022-10-30T18:22:40.041Z,32.93
2022-10-30T18:25:29.373Z,32.47
2022-10-30T18:28:14.942Z,29.73
2022-10-30T18:31:01.871Z,31.47
2022-10-30T18:33:47.740Z,27.03
2022-10-30T18:36:33.579Z,26.87
2022-10-30T18:39:19.355Z,25.70
2022-10-30T18:42:05.388Z,30.53
2022-10-30T18:44:51.150Z,38.27
2022-10-30T18:47:36.962Z,35.20
2022-10-30T18:50:24.352Z,34.17
2022-10-30T18:53:16.530Z,34.63
2022-10-30T18:56:02.416Z,25.47
2022-10-30T18:58:48.521Z,28.30
2022-10-30T19:01:34.722Z,31.50
2022-10-30T19:04:22.583Z,29.93
2022-10-30T19:07:08.996Z,33.20
2022-10-30T19:09:55.749Z,36.90
2022-10-30T19:12:51.541Z,37.10
2022-10-30T19:15:49.115Z,30.63
2022-10-30T19:18:36.623Z,36.90
2022-10-30T19:21:23.237Z,36.37
2022-10-30T19:24:10.352Z,30.80
2022-10-30T19:26:56.439Z,31.90
2022-10-30T19:29:42.582Z,37.70
2022-10-30T19:32:28.340Z,30.70
2022-10-30T19:35:14.842Z,26.63
2022-10-30T19:38:01.148Z,38.70
2022-10-30T19:40:48.132Z,31.50
2022-10-30T19:43:33.527Z,33.80
2022-10-30T19:46:19.186Z,33.97
2022-10-30T19:49:23.575Z,30.30
2022-10-30T19:52:09.597Z,29.50
2022-10-30T19:54:55.428Z,29.23
2022-10-30T19:57:41.407Z,29.40
2022-10-30T20:00:28.929Z,32.53
2022-10-30T20:03:19.180Z,29.67
2022-10-30T20:06:05.640Z,34.57
2022-10-30T20:08:51.460Z,33.70
2022-10-30T20:11:37.130Z,29.50
2022-10-30T20:14:24.093Z,26.90
2022-10-30T20:17:10.736Z,30.40
2022-10-30T20:19:56.641Z,34.43
2022-10-30T20:22:43.662Z,27.00
2022-10-30T20:25:29.576Z,34.50
2022-10-30T20:28:24.009Z,36.10
2022-10-30T20:31:11.323Z,41.73
2022-10-30T20:33:56.871Z,29.70
2022-10-30T20:36:42.716Z,35.23
2022-10-30T20:39:28.304Z,30.57
2022-10-30T20:42:14.201Z,27.97
2022-10-30T20:44:59.728Z,29.33
2022-10-30T20:47:47.146Z,31.20
2022-10-30T20:50:35.057Z,33.23
2022-10-30T20:53:20.826Z,31.17
2022-10-30T20:56:07.073Z,29.10
2022-10-30T20:58:53.373Z,32.63
2022-10-30T21:01:39.301Z,27.17
2022-10-30T21:04:25.020Z,30.20
2022-10-30T21:07:13.239Z,26.83
2022-10-30T21:09:59.068Z,29.77
2022-10-30T21:12:44.957Z,28.77
2022-10-30T21:15:30.748Z,28.73
2022-10-30T21:18:16.417Z,24.33
2022-10-30T21:21:03.008Z,25.70
2022-10-30T21:23:48.663Z,29.20
2022-10-30T21:26:36.400Z,28.90
2022-10-30T21:29:24.564Z,29.13
2022-10-30T21:32:10.238Z,32.17
2022-10-30T21:34:55.935Z,29.27
2022-10-30T21:37:41.471Z,26.30
2022-10-30T21:40:26.896Z,26.80
2022-10-30T21:43:12.453Z,27.17
2022-10-30T21:45:58.460Z,24.33
2022-10-30T21:48:47.339Z,27.57
2022-10-30T21:51:33.352Z,29.03
2022-10-30T21:54:19.772Z,32.60
2022-10-30T21:57:05.437Z,29.10
2022-10-30T21:59:51.031Z,33.37
2022-10-30T22:02:36.868Z,34.00
2022-10-30T22:05:22.556Z,31.23
2022-10-30T22:08:08.258Z,26.30
2022-10-30T22:10:53.893Z,26.80
2022-10-30T22:13:39.910Z,29.23
2022-10-30T22:16:26.382Z,34.97
2022-10-30T22:19:12.231Z,32.03
2022-10-30T22:21:58.284Z,30.97
2022-10-30T22:24:43.896Z,27.43
2022-10-30T22:27:29.747Z,30.00
2022-10-30T22:30:15.637Z,23.87
2022-10-30T22:33:01.456Z,23.40
2022-10-30T22:35:48.079Z,22.23
2022-10-30T22:38:34.284Z,30.40
2022-10-30T22:41:21.999Z,26.20
2022-10-30T22:44:09.194Z,28.03
2022-10-30T22:46:55.056Z,27.70
2022-10-30T22:49:42.035Z,23.33
2022-10-30T22:52:27.782Z,29.63
2022-10-30T22:55:13.223Z,26.67
2022-10-30T22:57:59.031Z,31.17
2022-10-30T23:00:45.093Z,22.87
2022-10-30T23:03:31.625Z,26.77
2022-10-30T23:06:17.421Z,27.00
2022-10-30T23:09:06.040Z,27.93
2022-10-30T23:11:52.193Z,34.77
2022-10-30T23:14:37.867Z,21.10
2022-10-30T23:17:23.777Z,21.93
2022-10-30T23:20:10.359Z,22.87
2022-10-30T23:22:56.149Z,26.40
2022-10-30T23:25:41.937Z,20.20
2022-10-30T23:28:28.864Z,22.43
2022-10-30T23:31:25.788Z,22.63
2022-10-30T23:34:13.199Z,27.70
2022-10-30T23:37:01.818Z,24.27
2022-10-30T23:39:48.135Z,22.40
2022-10-30T23:42:35.073Z,24.83
2022-10-30T23:45:21.905Z,23.10
2022-10-30T23:48:08.001Z,29.07
2022-10-30T23:50:54.101Z,23.57
2022-10-30T23:53:40.002Z,21.87
2022-10-30T23:56:25.915Z,25.53
2022-10-30T23:59:11.938Z,18.23
